Time;durP1;ratioP1;P1;durP2;ratioP2;P2;SDS_P1;SDS_P2;PMS_P1;PMS_P2;Temp;Humidity;BMP_temperature;BMP_pressure;BME280_temperature;BME280_humidity;BME280_pressure;Samples;Min_cycle;Max_cycle;Signal;HPM_P1;HPM_P2
2021/05/24 00:00:46;;;;;;;9.33;3.07;;;7.70;99.90;;;;;;5116223;28;20459;-83
2021/05/24 00:03:16;;;;;;;8.77;3.00;;;7.70;99.90;;;;;;5100519;28;20449;-83
2021/05/24 00:05:46;;;;;;;8.53;3.10;;;7.70;99.90;;;;;;5094625;28;20457;-83
2021/05/24 00:08:22;;;;;;;10.40;3.93;;;7.60;99.90;;;;;;5096034;28;20449;-83
2021/05/24 00:10:48;;;;;;;15.80;4.00;;;7.60;99.90;;;;;;5095686;28;20674;-83
2021/05/24 00:13:17;;;;;;;9.37;3.77;;;7.60;99.90;;;;;;5095582;28;21000;-83
2021/05/24 00:15:48;;;;;;;8.57;3.67;;;7.80;99.90;;;;;;5095393;28;20546;-83
2021/05/24 00:18:17;;;;;;;10.10;3.30;;;7.80;99.90;;;;;;5095528;28;20945;-83
2021/05/24 00:20:48;;;;;;;13.07;3.93;;;7.80;99.90;;;;;;5094314;28;20450;-82
2021/05/24 00:23:16;;;;;;;12.87;4.03;;;7.80;99.90;;;;;;5108187;28;20460;-83
2021/05/24 00:25:45;;;;;;;9.83;3.73;;;7.80;99.90;;;;;;5115434;28;20525;-84
2021/05/24 00:28:13;;;;;;;10.03;4.83;;;7.70;99.90;;;;;;5103152;28;20446;-83
2021/05/24 00:30:40;;;;;;;8.47;3.23;;;7.70;99.90;;;;;;5095087;28;20453;-84
2021/05/24 00:33:07;;;;;;;9.00;3.37;;;7.70;99.90;;;;;;5105636;28;20494;-83
2021/05/24 00:35:36;;;;;;;8.90;4.37;;;7.80;99.90;;;;;;5114292;28;20825;-84
2021/05/24 00:38:08;;;;;;;9.63;4.77;;;7.90;99.90;;;;;;5114599;28;20852;-83
2021/05/24 00:40:37;;;;;;;9.43;4.00;;;8.00;99.90;;;;;;5115479;28;20506;-83
2021/05/24 00:43:05;;;;;;;15.33;3.80;;;8.10;99.90;;;;;;5105769;28;20449;-83
2021/05/24 00:45:32;;;;;;;9.63;5.03;;;8.10;99.90;;;;;;5094683;28;20469;-83
2021/05/24 00:47:59;;;;;;;9.00;4.00;;;8.20;99.90;;;;;;5102703;28;20459;-83
2021/05/24 00:50:25;;;;;;;8.90;3.70;;;8.30;99.90;;;;;;5114035;28;20457;-83
2021/05/24 00:52:52;;;;;;;8.60;3.50;;;8.20;99.90;;;;;;5108167;28;20441;-83
2021/05/24 00:55:22;;;;;;;8.80;3.70;;;8.30;99.90;;;;;;5094613;28;21065;-84
2021/05/24 00:57:50;;;;;;;8.80;3.27;;;8.30;99.90;;;;;;5095704;28;20454;-83
2021/05/24 01:00:28;;;;;;;9.40;3.80;;;8.40;99.90;;;;;;5094741;28;20449;-83
2021/05/24 01:02:56;;;;;;;10.70;4.80;;;8.50;99.90;;;;;;5099993;28;20452;-83
2021/05/24 01:05:23;;;;;;;9.87;3.93;;;8.60;99.90;;;;;;5099163;28;20445;-83
2021/05/24 01:07:51;;;;;;;12.40;3.83;;;8.90;99.90;;;;;;5104556;28;20943;-84
2021/05/24 01:10:19;;;;;;;11.33;2.80;;;9.10;99.90;;;;;;5114958;28;20924;-83
2021/05/24 01:12:46;;;;;;;9.43;2.73;;;9.20;99.90;;;;;;5113831;28;20935;-83
2021/05/24 01:15:13;;;;;;;8.30;1.97;;;9.40;99.90;;;;;;5114616;28;20453;-83
2021/05/24 01:17:40;;;;;;;9.67;2.27;;;9.40;99.90;;;;;;5106283;28;20808;-83
2021/05/24 01:20:10;;;;;;;10.70;1.50;;;9.60;99.90;;;;;;5093453;28;20457;-84
2021/05/24 01:22:38;;;;;;;8.17;1.40;;;9.60;99.90;;;;;;5099895;28;20453;-83
2021/05/24 01:25:08;;;;;;;10.43;2.70;;;9.60;99.90;;;;;;5114455;28;20972;-83
2021/05/24 01:27:38;;;;;;;10.87;1.80;;;9.60;99.90;;;;;;5108014;28;20446;-83
2021/05/24 01:30:08;;;;;;;9.43;1.87;;;9.50;99.90;;;;;;5093945;28;20511;-83
2021/05/24 01:32:35;;;;;;;8.50;1.90;;;9.40;99.90;;;;;;5099152;28;20528;-83
2021/05/24 01:35:03;;;;;;;8.60;2.10;;;9.40;99.90;;;;;;5114088;28;20484;-83
2021/05/24 01:37:35;;;;;;;9.47;2.13;;;9.40;99.90;;;;;;5108840;28;20450;-83
2021/05/24 01:40:05;;;;;;;8.40;1.83;;;9.30;99.90;;;;;;5093730;28;20446;-83
2021/05/24 01:42:33;;;;;;;11.53;1.83;;;9.30;99.90;;;;;;5097145;28;20451;-84
2021/05/24 01:45:00;;;;;;;10.70;2.13;;;9.40;99.90;;;;;;5113906;28;20555;-83
2021/05/24 01:47:27;;;;;;;8.67;1.77;;;9.30;99.90;;;;;;5111664;28;20453;-83
2021/05/24 01:49:54;;;;;;;8.87;2.27;;;9.40;99.90;;;;;;5093525;28;20868;-82
2021/05/24 01:52:22;;;;;;;8.60;1.83;;;9.40;99.90;;;;;;5093535;28;20442;-83
2021/05/24 01:54:51;;;;;;;9.63;2.40;;;9.50;99.90;;;;;;5093604;28;20453;-83
2021/05/24 01:57:18;;;;;;;9.20;2.67;;;9.30;99.90;;;;;;5094499;28;20477;-83
2021/05/24 01:59:44;;;;;;;8.97;2.43;;;9.10;99.90;;;;;;5093545;28;20527;-84
2021/05/24 02:02:23;;;;;;;8.80;3.00;;;9.20;99.90;;;;;;5097857;28;20850;-83
2021/05/24 02:04:49;;;;;;;8.77;2.73;;;9.20;99.90;;;;;;5113626;28;20456;-83
2021/05/24 02:07:20;;;;;;;8.83;3.07;;;9.20;99.90;;;;;;5112024;28;20440;-84
2021/05/24 02:09:51;;;;;;;11.70;2.70;;;9.30;99.90;;;;;;5113536;28;20452;-84
2021/05/24 02:12:22;;;;;;;12.17;2.20;;;9.40;99.90;;;;;;5109021;28;20454;-84
2021/05/24 02:14:50;;;;;;;8.97;1.87;;;9.60;99.90;;;;;;5093198;28;20485;-82
2021/05/24 02:17:17;;;;;;;8.70;1.60;;;9.90;99.90;;;;;;5096586;28;20472;-83
2021/05/24 02:19:48;;;;;;;21.47;1.90;;;10.10;99.90;;;;;;5113230;28;20453;-83
2021/05/24 02:22:14;;;;;;;8.97;1.80;;;10.00;99.90;;;;;;5109638;28;20448;-83
2021/05/24 02:24:41;;;;;;;9.00;2.23;;;10.00;99.90;;;;;;5093011;28;20445;-84
2021/05/24 02:27:11;;;;;;;11.00;2.00;;;9.90;99.90;;;;;;5093902;28;20454;-83
2021/05/24 02:29:38;;;;;;;9.57;2.43;;;9.80;99.90;;;;;;5113096;28;20487;-84
2021/05/24 02:32:05;;;;;;;8.90;1.60;;;9.80;99.90;;;;;;5112884;28;20448;-82
2021/05/24 02:34:31;;;;;;;10.50;1.70;;;9.70;99.90;;;;;;5106415;28;20963;-83
2021/05/24 02:36:58;;;;;;;9.20;2.00;;;9.70;99.90;;;;;;5112039;28;20483;-83
2021/05/24 02:39:24;;;;;;;9.30;2.00;;;9.70;99.90;;;;;;5094064;28;20457;-83
2021/05/24 02:41:52;;;;;;;9.60;2.20;;;9.70;99.90;;;;;;5092886;28;20483;-84
2021/05/24 02:44:18;;;;;;;8.90;1.73;;;9.70;99.90;;;;;;5109918;28;20448;-82
2021/05/24 02:46:46;;;;;;;9.27;1.93;;;10.00;99.90;;;;;;5111066;28;20448;-85
2021/05/24 02:49:15;;;;;;;9.93;2.13;;;10.10;98.90;;;;;;5108156;28;20449;-84
2021/05/24 02:51:44;;;;;;;10.07;2.20;;;10.00;99.90;;;;;;5110630;28;20456;-84
2021/05/24 02:54:11;;;;;;;14.43;2.37;;;9.90;99.90;;;;;;5109122;28;20452;-83
2021/05/24 02:56:37;;;;;;;10.10;2.20;;;9.90;99.90;;;;;;5112401;28;20472;-83
2021/05/24 02:59:06;;;;;;;10.17;1.90;;;9.90;99.90;;;;;;5113066;28;20552;-85
2021/05/24 03:01:34;;;;;;;9.30;1.87;;;9.90;99.90;;;;;;5095793;28;20830;-83
2021/05/24 03:04:03;;;;;;;12.37;2.30;;;9.90;99.90;;;;;;5092623;28;20468;-83
2021/05/24 03:06:31;;;;;;;9.03;1.90;;;9.90;99.90;;;;;;5107299;28;20478;-83
2021/05/24 03:08:59;;;;;;;8.87;1.80;;;9.90;99.90;;;;;;5094328;28;20457;-83
2021/05/24 03:11:26;;;;;;;12.50;2.03;;;9.90;99.90;;;;;;5092668;28;20821;-83
2021/05/24 03:13:52;;;;;;;8.90;1.60;;;9.90;99.90;;;;;;5093066;28;20449;-83
2021/05/24 03:16:19;;;;;;;10.87;1.93;;;10.00;99.90;;;;;;5092542;28;20891;-83
2021/05/24 03:18:46;;;;;;;9.17;1.80;;;10.00;99.90;;;;;;5099247;28;20968;-82
2021/05/24 03:21:15;;;;;;;10.13;1.80;;;10.00;99.70;;;;;;5111871;28;20456;-84
2021/05/24 03:23:41;;;;;;;12.90;1.77;;;10.00;99.90;;;;;;5112263;28;20456;-83
2021/05/24 03:26:08;;;;;;;9.60;1.93;;;10.00;99.00;;;;;;5113108;28;20456;-84
2021/05/24 03:28:36;;;;;;;9.10;1.70;;;10.00;97.70;;;;;;5107999;28;20473;-83
2021/05/24 03:31:03;;;;;;;9.57;1.60;;;10.00;97.60;;;;;;5092493;28;20461;-83
2021/05/24 03:33:29;;;;;;;10.27;1.97;;;10.00;96.50;;;;;;5096083;28;20452;-84
2021/05/24 03:35:56;;;;;;;9.50;1.57;;;10.00;96.00;;;;;;5111441;28;20588;-83
2021/05/24 03:38:23;;;;;;;9.60;2.13;;;10.10;94.70;;;;;;5096127;28;20453;-82
2021/05/24 03:40:52;;;;;;;9.60;2.00;;;10.10;94.40;;;;;;5092332;28;20528;-83
2021/05/24 03:43:21;;;;;;;9.50;2.23;;;10.10;94.90;;;;;;5109862;28;21024;-84
2021/05/24 03:45:48;;;;;;;11.37;1.67;;;10.10;95.00;;;;;;5116344;28;20472;-84
2021/05/24 03:48:17;;;;;;;9.50;1.63;;;10.20;94.90;;;;;;5102208;28;20449;-84
2021/05/24 03:50:44;;;;;;;9.53;1.70;;;10.10;94.60;;;;;;5094958;28;20879;-84
2021/05/24 03:53:10;;;;;;;10.77;1.97;;;10.20;94.40;;;;;;5108168;28;20480;-83
2021/05/24 03:55:37;;;;;;;9.37;1.67;;;10.20;94.40;;;;;;5116399;28;20472;-84
2021/05/24 03:58:05;;;;;;;9.40;1.83;;;10.30;93.60;;;;;;5105921;28;20448;-83
2021/05/24 04:00:32;;;;;;;10.97;1.60;;;10.30;92.80;;;;;;5095806;28;20545;-83
2021/05/24 04:03:00;;;;;;;9.90;2.33;;;10.40;91.50;;;;;;5104933;28;20553;-83
2021/05/24 04:05:31;;;;;;;9.30;1.63;;;10.40;90.60;;;;;;5115116;28;20453;-84
2021/05/24 04:08:04;;;;;;;9.60;1.60;;;10.50;89.70;;;;;;5106978;28;20453;-83
2021/05/24 04:10:33;;;;;;;12.10;1.63;;;10.60;88.40;;;;;;5095720;28;20928;-84
2021/05/24 04:13:03;;;;;;;9.97;1.63;;;10.60;86.70;;;;;;5103457;28;20514;-83
2021/05/24 04:15:30;;;;;;;10.03;1.37;;;10.70;87.10;;;;;;5114033;28;20537;-83
2021/05/24 04:17:59;;;;;;;10.57;1.80;;;10.60;86.70;;;;;;5108207;28;20453;-84
2021/05/24 04:20:26;;;;;;;11.60;1.50;;;10.70;85.00;;;;;;5094163;28;20445;-85
2021/05/24 04:22:59;;;;;;;9.07;1.27;;;10.70;83.60;;;;;;5104296;28;20455;-83
2021/05/24 04:25:26;;;;;;;10.43;1.87;;;10.80;84.20;;;;;;5115607;28;20449;-84
2021/05/24 04:27:52;;;;;;;12.50;1.90;;;10.80;84.40;;;;;;5103523;28;20528;-83
2021/05/24 04:30:20;;;;;;;10.00;1.67;;;10.90;83.00;;;;;;5095344;28;20450;-84
2021/05/24 04:32:47;;;;;;;10.17;2.10;;;10.80;84.70;;;;;;5095225;28;20961;-83
2021/05/24 04:35:14;;;;;;;9.60;1.30;;;10.80;84.40;;;;;;5094832;28;20486;-83
2021/05/24 04:37:41;;;;;;;9.90;1.67;;;10.80;82.70;;;;;;5103509;28;20484;-83
2021/05/24 04:40:15;;;;;;;10.10;1.93;;;10.80;84.20;;;;;;5110456;28;20470;-83
2021/05/24 04:42:42;;;;;;;10.50;2.20;;;10.90;84.90;;;;;;5094923;28;20544;-83
2021/05/24 04:45:09;;;;;;;10.87;1.60;;;10.90;84.00;;;;;;5098548;28;20845;-83
2021/05/24 04:47:36;;;;;;;12.20;1.87;;;11.00;82.20;;;;;;5115302;28;20448;-84
2021/05/24 04:50:05;;;;;;;14.97;1.87;;;11.20;79.70;;;;;;5112437;28;20833;-83
2021/05/24 04:52:31;;;;;;;12.33;1.50;;;11.30;68.50;;;;;;5093569;28;20445;-83
2021/05/24 04:54:58;;;;;;;11.20;1.50;;;11.60;58.70;;;;;;5095701;28;20533;-84
2021/05/24 04:57:24;;;;;;;11.03;1.37;;;11.90;53.20;;;;;;5114803;28;21018;-83
2021/05/24 04:59:54;;;;;;;10.10;1.33;;;12.00;49.20;;;;;;5115069;28;20452;-84
2021/05/24 05:02:22;;;;;;;12.70;1.53;;;12.10;45.80;;;;;;5097595;28;20461;-83
2021/05/24 05:04:51;;;;;;;10.37;1.00;;;12.20;45.90;;;;;;5114872;28;20456;-84
2021/05/24 05:07:17;;;;;;;10.30;1.30;;;12.20;43.40;;;;;;5112621;28;20505;-83
2021/05/24 05:09:44;;;;;;;10.23;1.20;;;12.10;43.20;;;;;;5114720;28;20539;-83
2021/05/24 05:12:12;;;;;;;10.33;1.33;;;12.20;40.20;;;;;;5113912;28;20476;-83
2021/05/24 05:14:40;;;;;;;10.23;1.00;;;12.20;41.30;;;;;;5113415;28;20445;-83
2021/05/24 05:17:07;;;;;;;10.40;1.20;;;12.40;38.40;;;;;;5102878;28;20500;-80
2021/05/24 05:19:33;;;;;;;11.20;1.50;;;12.40;39.40;;;;;;5101430;28;20543;-82
2021/05/24 05:22:08;;;;;;;12.00;1.10;;;12.60;37.40;;;;;;5107563;28;20510;-85
2021/05/24 05:24:34;;;;;;;11.87;1.30;;;13.00;32.50;;;;;;5098916;28;20452;-81
2021/05/24 05:27:05;;;;;;;13.43;1.43;;;13.40;30.70;;;;;;5098745;28;20936;-82
2021/05/24 05:29:34;;;;;;;13.67;1.30;;;13.70;27.50;;;;;;5093955;28;20454;-82
2021/05/24 05:32:00;;;;;;;14.77;1.50;;;14.00;24.70;;;;;;5108082;28;21027;-83
2021/05/24 05:34:29;;;;;;;15.90;1.43;;;14.30;22.30;;;;;;5111173;28;20449;-83
2021/05/24 05:36:57;;;;;;;15.97;1.10;;;14.50;21.40;;;;;;5092363;28;20524;-83
2021/05/24 05:39:28;;;;;;;17.67;1.30;;;14.70;19.50;;;;;;5093569;28;20457;-83
2021/05/24 05:41:54;;;;;;;19.13;1.40;;;14.80;16.70;;;;;;5093592;28;20941;-84
2021/05/24 05:44:41;;;;;;;;;;;;;;;;;;;;;
2021/05/24 05:47:08;;;;;;;21.30;2.33;;;15.10;16.20;;;;;;5029045;28;20514;-84
2021/05/24 05:49:34;;;;;;;24.13;1.80;;;15.10;14.60;;;;;;5093602;28;20448;-83
2021/05/24 05:52:05;;;;;;;28.70;1.83;;;15.40;15.50;;;;;;5093078;28;20483;-82
2021/05/24 05:54:32;;;;;;;23.13;1.40;;;15.30;13.20;;;;;;5094420;28;20537;-84
2021/05/24 05:56:58;;;;;;;24.23;1.60;;;15.30;13.30;;;;;;5097330;28;20496;-82
2021/05/24 05:59:27;;;;;;;26.67;2.23;;;15.60;14.20;;;;;;5093250;28;20457;-84
2021/05/24 06:01:53;;;;;;;25.93;1.57;;;15.70;11.40;;;;;;5094618;28;20492;-84
2021/05/24 06:04:21;;;;;;;30.73;2.20;;;15.70;12.10;;;;;;5097352;28;20527;-83
2021/05/24 06:06:53;;;;;;;27.87;1.97;;;15.90;9.80;;;;;;5091790;28;20499;-83
2021/05/24 06:09:19;;;;;;;28.20;1.80;;;16.00;9.50;;;;;;5096309;28;20446;-83
2021/05/24 06:11:51;;;;;;;31.07;1.93;;;16.00;8.30;;;;;;5101482;28;20445;-84
2021/05/24 06:14:21;;;;;;;29.57;1.93;;;16.30;10.30;;;;;;5102051;28;20806;-84
2021/05/24 06:16:55;;;;;;;29.77;1.60;;;16.30;9.60;;;;;;5099820;28;20482;-83
2021/05/24 06:19:22;;;;;;;33.00;1.53;;;16.50;9.30;;;;;;5112550;28;21289;-83
2021/05/24 06:21:54;;;;;;;31.80;1.77;;;16.60;8.50;;;;;;5104275;28;20449;-83
2021/05/24 06:24:21;;;;;;;34.17;1.83;;;16.80;7.70;;;;;;5107307;28;20531;-84
2021/05/24 06:26:50;;;;;;;33.20;1.60;;;16.80;7.00;;;;;;5106147;28;20508;-86
2021/05/24 06:29:31;;;;;;;33.50;2.10;;;16.90;7.00;;;;;;5101511;28;20537;-86
2021/05/24 06:31:58;;;;;;;35.47;3.23;;;16.80;4.40;;;;;;5101778;28;20448;-86
2021/05/24 06:34:53;;;;;;;33.90;1.77;;;16.70;4.90;;;;;;5111862;28;20533;-83
2021/05/24 06:37:23;;;;;;;35.30;2.40;;;17.00;7.10;;;;;;5104928;28;20472;-85
2021/05/24 06:39:52;;;;;;;36.30;2.87;;;16.90;4.50;;;;;;5097291;28;20532;-86
2021/05/24 06:42:20;;;;;;;34.37;2.10;;;16.80;5.00;;;;;;5108987;28;20935;-84
2021/05/24 06:44:46;;;;;;;34.20;2.00;;;17.00;7.30;;;;;;5109545;28;20492;-85
2021/05/24 06:47:13;;;;;;;35.00;2.67;;;17.10;6.00;;;;;;5099880;28;20444;-83
2021/05/24 06:49:39;;;;;;;36.97;2.20;;;17.30;3.70;;;;;;5110845;28;20543;-83
2021/05/24 06:52:07;;;;;;;36.93;2.50;;;17.20;3.70;;;;;;5097735;28;20485;-83
2021/05/24 06:54:50;;;;;;;38.47;3.40;;;17.40;3.00;;;;;;5112212;28;20449;-83
2021/05/24 06:57:16;;;;;;;37.33;3.33;;;17.50;2.50;;;;;;5103062;28;20579;-83
2021/05/24 06:59:45;;;;;;;38.27;2.80;;;17.40;4.00;;;;;;5111473;28;20533;-82
2021/05/24 07:02:16;;;;;;;37.63;2.77;;;17.90;3.80;;;;;;5099397;28;20804;-84
2021/05/24 07:04:48;;;;;;;39.77;2.60;;;17.80;1.30;;;;;;5101168;28;20442;-84
2021/05/24 07:10:38;;;;;;;41.20;4.33;;;18.40;1.50;;;;;;5059283;28;20497;-85
2021/05/24 07:13:06;;;;;;;40.40;1.90;;;18.20;1.00;;;;;;5109694;28;20502;-85
2021/05/24 07:15:36;;;;;;;44.27;2.57;;;18.50;1.30;;;;;;5110056;28;20437;-85
2021/05/24 07:18:13;;;;;;;41.37;1.97;;;18.60;1.00;;;;;;5095422;28;20445;-90
2021/05/24 07:20:44;;;;;;;44.13;2.60;;;18.70;1.10;;;;;;5097165;28;21126;-83
2021/05/24 07:23:18;;;;;;;43.87;2.60;;;18.60;1.00;;;;;;5116894;28;20448;-88
2021/05/24 07:25:46;;;;;;;40.50;3.30;;;18.50;1.00;;;;;;5113056;28;20453;-86
2021/05/24 07:28:14;;;;;;;40.17;2.10;;;18.50;1.00;;;;;;5108883;27;20463;-85
2021/05/24 07:30:46;;;;;;;41.13;2.07;;;18.50;1.00;;;;;;5111607;28;20480;-84
2021/05/24 07:33:12;;;;;;;38.27;2.83;;;18.50;1.10;;;;;;5105018;28;20449;-85
2021/05/24 07:35:54;;;;;;;38.20;1.50;;;18.50;1.00;;;;;;5101092;28;20539;-87
2021/05/24 07:38:31;;;;;;;38.20;1.90;;;18.80;1.00;;;;;;5098780;28;20932;-86
2021/05/24 07:40:58;;;;;;;38.80;1.77;;;19.00;1.00;;;;;;5098031;28;20440;-86
2021/05/24 07:43:25;;;;;;;38.67;2.00;;;19.10;1.00;;;;;;5111201;28;20487;-86
2021/05/24 07:45:55;;;;;;;36.50;1.60;;;18.70;1.00;;;;;;5107895;28;20453;-86
2021/05/24 07:48:23;;;;;;;36.07;1.60;;;18.40;1.00;;;;;;5106784;28;20482;-88
2021/05/24 07:50:49;;;;;;;39.27;3.97;;;18.00;1.20;;;;;;5094106;28;20452;-87
2021/05/24 07:53:20;;;;;;;32.77;2.27;;;17.70;1.70;;;;;;5099187;28;20456;-84
2021/05/24 07:55:50;;;;;;;30.90;1.60;;;17.60;1.00;;;;;;5111497;28;21001;-83
2021/05/24 07:58:16;;;;;;;29.27;1.67;;;17.70;3.90;;;;;;5108051;28;20444;-84
2021/05/24 08:00:43;;;;;;;28.60;1.53;;;17.40;1.10;;;;;;5103365;28;20445;-83
2021/05/24 08:03:13;;;;;;;30.37;1.70;;;17.40;4.80;;;;;;5046980;28;21043;-87
2021/05/24 08:05:43;;;;;;;27.10;1.70;;;17.40;2.70;;;;;;5031883;28;21308;-86
2021/05/24 08:08:09;;;;;;;26.67;1.83;;;17.40;4.30;;;;;;5033258;28;20455;-86
2021/05/24 08:10:37;;;;;;;28.27;1.67;;;17.30;6.10;;;;;;5033775;28;20506;-83
2021/05/24 08:13:03;;;;;;;27.93;1.60;;;17.00;6.00;;;;;;5034073;28;20451;-85
2021/05/24 08:15:32;;;;;;;24.43;1.40;;;16.90;6.20;;;;;;5033951;28;20959;-87
2021/05/24 08:18:00;;;;;;;24.60;1.53;;;16.70;7.00;;;;;;5033943;28;20897;-86
2021/05/24 08:20:42;;;;;;;26.13;1.50;;;16.80;6.20;;;;;;5032857;28;20467;-83
2021/05/24 08:23:10;;;;;;;23.97;1.57;;;17.00;5.60;;;;;;5027320;28;20456;-86
2021/05/24 08:25:36;;;;;;;23.10;1.30;;;17.00;6.60;;;;;;5034453;28;20495;-85
2021/05/24 08:28:04;;;;;;;23.50;1.47;;;17.00;4.90;;;;;;5034641;28;20456;-85
2021/05/24 08:30:34;;;;;;;25.20;1.97;;;17.10;4.50;;;;;;5034265;28;20453;-85
2021/05/24 08:33:01;;;;;;;23.30;1.40;;;17.10;5.70;;;;;;5034986;28;20487;-86
2021/05/24 08:35:27;;;;;;;24.60;1.40;;;17.20;6.20;;;;;;5033406;28;20480;-87
2021/05/24 08:37:55;;;;;;;23.80;1.90;;;17.30;5.20;;;;;;5034777;28;20949;-84
2021/05/24 08:40:29;;;;;;;24.60;1.50;;;17.10;3.50;;;;;;5034678;28;20818;-86
2021/05/24 08:42:57;;;;;;;23.30;1.27;;;17.20;6.10;;;;;;5034672;28;20460;-86
2021/05/24 08:45:26;;;;;;;30.93;3.00;;;17.20;6.00;;;;;;5034494;28;20498;-87
2021/05/24 08:47:56;;;;;;;23.70;1.70;;;17.00;2.40;;;;;;5034593;28;20440;-85
2021/05/24 08:50:23;;;;;;;24.60;1.90;;;17.10;2.50;;;;;;5033456;28;20444;-87
2021/05/24 08:52:54;;;;;;;28.80;1.90;;;17.00;3.50;;;;;;5034399;28;20448;-83
2021/05/24 08:55:30;;;;;;;23.40;1.77;;;16.90;4.20;;;;;;5033786;28;20448;-84
2021/05/24 08:57:56;;;;;;;23.40;1.50;;;16.80;5.10;;;;;;5034014;28;20535;-85
2021/05/24 09:00:23;;;;;;;23.53;1.70;;;16.90;4.50;;;;;;5034100;28;21013;-86
2021/05/24 09:02:51;;;;;;;23.33;1.60;;;17.00;5.30;;;;;;5034406;28;20860;-85
2021/05/24 09:05:18;;;;;;;22.30;1.80;;;17.00;5.00;;;;;;5034117;28;20782;-86
2021/05/24 09:07:50;;;;;;;24.20;1.63;;;17.00;4.80;;;;;;5033676;28;20470;-86
2021/05/24 09:10:18;;;;;;;23.07;1.50;;;17.10;3.20;;;;;;5034112;28;20888;-86
2021/05/24 09:12:45;;;;;;;23.30;1.80;;;17.10;3.50;;;;;;5034196;28;20456;-87
2021/05/24 09:15:14;;;;;;;24.20;1.60;;;17.00;2.50;;;;;;5033478;28;20983;-85
2021/05/24 09:17:46;;;;;;;22.60;1.60;;;16.90;3.00;;;;;;5033789;28;20522;-87
2021/05/24 09:20:30;;;;;;;23.00;1.63;;;16.80;2.20;;;;;;5032954;28;20539;-84
2021/05/24 09:23:12;;;;;;;22.67;2.33;;;16.60;2.10;;;;;;5034049;28;20479;-87
2021/05/24 09:26:05;;;;;;;24.33;1.85;;;16.50;4.80;;;;;;5024502;28;21028;-87
2021/05/24 09:28:51;;;;;;;22.60;1.57;;;16.50;4.10;;;;;;4997087;28;20187;-86
2021/05/24 09:31:20;;;;;;;24.43;1.60;;;16.50;4.90;;;;;;5007407;28;22204;-84
2021/05/24 09:33:57;;;;;;;22.43;2.00;;;16.40;5.00;;;;;;5033338;28;20826;-86
2021/05/24 09:36:24;;;;;;;23.70;1.67;;;16.30;7.00;;;;;;5031396;28;20511;-87
2021/05/24 09:39:06;;;;;;;21.03;1.30;;;16.20;7.40;;;;;;5034244;28;20927;-85
2021/05/24 09:42:01;;;;;;;;;;;;;;;;;;;;;
2021/05/24 09:44:34;;;;;;;20.43;1.40;;;16.20;6.00;;;;;;5013375;28;20496;-84
2021/05/24 09:47:03;;;;;;;21.40;1.67;;;16.20;5.70;;;;;;5018129;28;20452;-85
2021/05/24 09:49:30;;;;;;;25.40;1.80;;;16.30;7.00;;;;;;5033679;28;20510;-86
2021/05/24 09:51:59;;;;;;;21.03;1.77;;;16.30;6.40;;;;;;5031888;28;20990;-88
2021/05/24 09:54:56;;;;;;;21.67;1.80;;;16.40;5.60;;;;;;5032341;28;20448;-83
2021/05/24 09:57:59;;;;;;;22.27;2.10;;;16.30;7.60;;;;;;5026835;28;20570;-86
2021/05/24 10:04:26;;;;;;;21.03;1.60;;;16.30;7.90;;;;;;5008256;28;21089;-83
2021/05/24 10:07:10;;;;;;;23.67;1.90;;;16.30;6.70;;;;;;5032094;28;20543;-84
2021/05/24 10:12:30;;;;;;;21.63;1.83;;;16.20;4.60;;;;;;5031230;28;20448;-86
2021/05/24 10:15:08;;;;;;;20.30;1.20;;;16.20;4.40;;;;;;5033289;28;20482;-86
2021/05/24 10:17:51;;;;;;;21.07;1.40;;;16.10;6.20;;;;;;5032944;28;20858;-85
2021/05/24 10:20:22;;;;;;;21.00;1.67;;;16.20;4.90;;;;;;5032820;28;20927;-83
2021/05/24 10:25:59;;;;;;;22.83;2.00;;;16.30;5.70;;;;;;5031976;28;20447;-83
2021/05/24 10:49:25;;;;;;;27.00;1.80;;;16.40;3.80;;;;;;4765877;29;20526;-86
2021/05/24 10:56:12;;;;;;;20.93;1.90;;;16.50;5.10;;;;;;4824691;29;20469;-84
2021/05/24 11:14:07;;;;;;;21.47;1.50;;;16.20;9.90;;;;;;4767836;29;21159;-83
2021/05/24 11:17:02;;;;;;;20.40;1.50;;;16.10;15.90;;;;;;4840074;29;20488;-82
2021/05/24 11:19:50;;;;;;;19.90;1.10;;;15.90;16.80;;;;;;4941244;28;20550;-83
2021/05/24 11:22:31;;;;;;;19.87;1.30;;;15.60;20.10;;;;;;5013159;28;20457;-81
2021/05/24 11:28:13;;;;;;;18.37;1.40;;;15.00;33.40;;;;;;5014475;28;20448;-82
2021/05/24 11:31:17;;;;;;;18.37;1.77;;;14.80;35.70;;;;;;5014727;28;20456;-82
2021/05/24 11:34:07;;;;;;;18.43;1.43;;;14.70;45.50;;;;;;5014072;28;20944;-82
2021/05/24 11:37:00;;;;;;;17.10;1.50;;;14.50;58.20;;;;;;5028460;28;20510;-83
2021/05/24 11:39:40;;;;;;;19.10;1.47;;;14.40;64.20;;;;;;5034254;28;20444;-84
2021/05/24 11:42:12;;;;;;;19.70;1.70;;;14.40;65.00;;;;;;5033262;28;21430;-83
2021/05/24 11:44:47;;;;;;;15.87;1.20;;;14.40;75.80;;;;;;5033985;28;20874;-83
2021/05/24 11:47:16;;;;;;;15.73;1.47;;;14.40;73.10;;;;;;5033545;28;20451;-83
2021/05/24 11:49:53;;;;;;;16.17;1.57;;;14.40;71.90;;;;;;5033697;28;20452;-83
2021/05/24 11:52:22;;;;;;;16.70;1.30;;;14.30;80.90;;;;;;5032670;28;20821;-83
2021/05/24 11:54:54;;;;;;;16.60;1.60;;;14.00;76.00;;;;;;5033412;28;20456;-82
2021/05/24 11:57:22;;;;;;;16.07;1.10;;;13.90;79.00;;;;;;5033595;28;20480;-82
2021/05/24 11:59:50;;;;;;;16.10;1.60;;;13.60;77.80;;;;;;5033749;28;21134;-84
2021/05/24 12:02:22;;;;;;;15.70;1.60;;;13.40;92.40;;;;;;5032657;28;20539;-83
2021/05/24 12:04:49;;;;;;;15.00;1.50;;;13.30;93.60;;;;;;5033104;28;20455;-85
2021/05/24 12:07:17;;;;;;;14.70;1.77;;;13.20;95.20;;;;;;5034171;28;20502;-82
2021/05/24 12:09:48;;;;;;;13.43;1.77;;;13.20;99.00;;;;;;5035470;28;20455;-82
2021/05/24 12:12:16;;;;;;;13.57;2.17;;;13.20;99.70;;;;;;5035310;28;20539;-82
2021/05/24 12:14:53;;;;;;;15.50;4.90;;;13.10;99.90;;;;;;5035315;28;20448;-82
2021/05/24 12:17:26;;;;;;;14.87;3.17;;;13.20;99.90;;;;;;5035371;28;20475;-82
2021/05/24 12:20:00;;;;;;;13.50;2.83;;;13.30;99.90;;;;;;5035263;28;20471;-82
2021/05/24 12:22:44;;;;;;;13.40;3.50;;;13.30;99.90;;;;;;5034200;28;20460;-82
2021/05/24 12:25:13;;;;;;;12.90;4.27;;;13.30;99.90;;;;;;5035147;28;20452;-82
2021/05/24 12:27:49;;;;;;;13.30;4.50;;;13.50;99.90;;;;;;5034978;28;20488;-82
2021/05/24 12:30:43;;;;;;;14.00;3.70;;;13.80;99.90;;;;;;5035292;28;20463;-82
2021/05/24 12:33:15;;;;;;;12.50;1.70;;;14.00;99.90;;;;;;5034919;28;20549;-83
2021/05/24 12:35:48;;;;;;;12.67;1.70;;;14.20;99.40;;;;;;5033704;28;21024;-83
2021/05/24 12:38:32;;;;;;;13.50;2.40;;;14.20;96.30;;;;;;5034896;28;20625;-82
2021/05/24 12:41:06;;;;;;;13.40;1.57;;;14.30;99.90;;;;;;5034718;28;20479;-83
2021/05/24 12:43:47;;;;;;;13.07;1.30;;;14.20;95.60;;;;;;5034981;28;20464;-84
2021/05/24 12:46:32;;;;;;;13.57;1.67;;;14.10;83.80;;;;;;5034813;28;20531;-82
2021/05/24 12:52:08;;;;;;;12.97;1.10;;;14.10;92.70;;;;;;5199937;23;20480;-81
2021/05/24 12:54:44;;;;;;;13.50;1.20;;;14.00;83.00;;;;;;5013309;28;20949;-80
2021/05/24 12:57:39;;;;;;;;;;;;;;;;;;;;;
2021/05/24 13:00:11;;;;;;;12.77;1.30;;;14.00;78.00;;;;;;4992688;28;20540;-81
2021/05/24 13:02:39;;;;;;;12.80;1.00;;;14.00;80.50;;;;;;5014639;28;20509;-82
2021/05/24 13:05:17;;;;;;;12.50;1.00;;;13.90;77.70;;;;;;5014500;28;20485;-81
2021/05/24 13:07:52;;;;;;;12.97;1.33;;;13.90;78.40;;;;;;5013589;28;20499;-81
2021/05/24 13:10:20;;;;;;;12.80;1.20;;;13.90;76.10;;;;;;5014733;28;20445;-84
2021/05/24 13:12:50;;;;;;;12.40;1.20;;;13.70;78.20;;;;;;5014591;28;20456;-83
2021/05/24 13:15:37;;;;;;;12.67;1.87;;;13.70;81.80;;;;;;5013362;28;20453;-84
2021/05/24 13:18:23;;;;;;;12.90;1.60;;;13.70;91.20;;;;;;5014187;28;20480;-84
2021/05/24 13:21:16;;;;;;;12.27;1.60;;;13.80;92.50;;;;;;5013138;28;20449;-85
2021/05/24 13:24:21;;;;;;;12.73;1.87;;;13.80;92.50;;;;;;5014423;28;20458;-85
2021/05/24 13:27:23;;;;;;;12.60;1.60;;;13.80;90.70;;;;;;5014017;28;20528;-84
2021/05/24 13:33:14;;;;;;;11.97;1.10;;;13.80;90.10;;;;;;5012986;28;20452;-85
2021/05/24 13:35:59;;;;;;;12.30;1.47;;;13.90;81.20;;;;;;5011804;28;20464;-82
2021/05/24 13:38:41;;;;;;;12.57;1.93;;;13.90;77.00;;;;;;4980273;28;20503;-86
2021/05/24 13:41:12;;;;;;;12.80;2.30;;;13.80;88.10;;;;;;5005181;28;20473;-83
2021/05/24 13:43:40;;;;;;;12.70;1.60;;;13.40;99.90;;;;;;4992970;28;20461;-84
2021/05/24 13:46:20;;;;;;;;;;;;;;;;;;;;;
2021/05/24 13:48:57;;;;;;;13.63;3.30;;;13.20;99.90;;;;;;4992517;28;20454;-80
2021/05/24 13:51:25;;;;;;;13.77;2.57;;;13.10;99.90;;;;;;4991509;28;20918;-80
2021/05/24 13:53:55;;;;;;;13.67;5.20;;;13.00;99.90;;;;;;5010940;28;20449;-82
2021/05/24 13:56:22;;;;;;;12.47;4.10;;;13.10;99.90;;;;;;5012214;28;20460;-83
2021/05/24 13:59:00;;;;;;;12.63;4.37;;;13.00;99.90;;;;;;5012364;28;20454;-83
2021/05/24 14:01:35;;;;;;;13.07;5.43;;;13.30;99.90;;;;;;5012052;28;20451;-85
2021/05/24 14:04:38;;;;;;;13.30;3.30;;;13.80;99.90;;;;;;5012482;28;20503;-82
2021/05/24 14:07:09;;;;;;;13.00;2.03;;;14.10;99.90;;;;;;4987488;28;20456;-85
2021/05/24 14:15:32;;;;;;;13.23;1.00;;;13.70;91.40;;;;;;5011056;28;20871;-86
2021/05/24 14:17:58;;;;;;;12.63;1.43;;;13.60;80.20;;;;;;5004096;28;20492;-84
2021/05/24 14:20:30;;;;;;;12.33;0.97;;;13.60;94.70;;;;;;5011271;28;20465;-85